sensor_id;sensor_type;location;lat;lon;timestamp;pressure;altitude;pressure_sealevel;temperature;humidity
49827;BME280;35715;51.570;6.036;2022-12-07T00:01:39;101667.69;;;5.51;94.25
49827;BME280;35715;51.570;6.036;2022-12-07T00:04:05;101668.47;;;5.50;94.55
49827;BME280;35715;51.570;6.036;2022-12-07T00:06:35;101665.44;;;5.45;95.10
49827;BME280;35715;51.570;6.036;2022-12-07T00:09:00;101679.44;;;5.49;95.25
49827;BME280;35715;51.570;6.036;2022-12-07T00:11:26;101662.56;;;5.51;95.75
49827;BME280;35715;51.570;6.036;2022-12-07T00:13:52;101667.69;;;5.51;95.58
49827;BME280;35715;51.570;6.036;2022-12-07T00:18:48;101669.78;;;5.46;94.37
49827;BME280;35715;51.570;6.036;2022-12-07T00:21:15;101663.31;;;5.41;94.99
49827;BME280;35715;51.570;6.036;2022-12-07T00:23:41;101662.25;;;5.39;95.50
49827;BME280;35715;51.570;6.036;2022-12-07T00:26:13;101654.28;;;5.36;96.78
49827;BME280;35715;51.570;6.036;2022-12-07T00:28:39;101653.69;;;5.47;96.73
49827;BME280;35715;51.570;6.036;2022-12-07T00:31:06;101646.63;;;5.54;96.47
49827;BME280;35715;51.570;6.036;2022-12-07T00:33:32;101641.34;;;5.52;96.37
49827;BME280;35715;51.570;6.036;2022-12-07T00:36:00;101648.72;;;5.49;96.33
49827;BME280;35715;51.570;6.036;2022-12-07T00:38:30;101648.72;;;5.49;95.82
49827;BME280;35715;51.570;6.036;2022-12-07T00:40:59;101645.41;;;5.50;95.06
49827;BME280;35715;51.570;6.036;2022-12-07T00:43:25;101644.97;;;5.45;94.81
49827;BME280;35715;51.570;6.036;2022-12-07T00:45:51;101644.66;;;5.42;94.77
49827;BME280;35715;51.570;6.036;2022-12-07T00:48:16;101639.81;;;5.37;94.72
49827;BME280;35715;51.570;6.036;2022-12-07T00:50:42;101634.38;;;5.33;94.73
49827;BME280;35715;51.570;6.036;2022-12-07T00:53:07;101636.31;;;5.27;95.19
49827;BME280;35715;51.570;6.036;2022-12-07T00:55:33;101642.03;;;5.25;94.93
49827;BME280;35715;51.570;6.036;2022-12-07T00:57:59;101640.06;;;5.22;94.77
49827;BME280;35715;51.570;6.036;2022-12-07T01:00:24;101642.13;;;5.18;95.45
49827;BME280;35715;51.570;6.036;2022-12-07T01:02:49;101641.09;;;5.15;95.75
49827;BME280;35715;51.570;6.036;2022-12-07T01:05:15;101633.41;;;5.15;95.67
49827;BME280;35715;51.570;6.036;2022-12-07T01:07:40;101637.81;;;5.17;95.72
49827;BME280;35715;51.570;6.036;2022-12-07T01:10:05;101633.41;;;5.15;95.54
49827;BME280;35715;51.570;6.036;2022-12-07T01:12:33;101641.09;;;5.15;95.29
49827;BME280;35715;51.570;6.036;2022-12-07T01:14:59;101632.06;;;5.10;95.56
49827;BME280;35715;51.570;6.036;2022-12-07T01:17:24;101630.25;;;5.09;95.65
49827;BME280;35715;51.570;6.036;2022-12-07T01:19:49;101632.47;;;5.06;95.90
49827;BME280;35715;51.570;6.036;2022-12-07T01:22:15;101642.13;;;5.09;95.95
49827;BME280;35715;51.570;6.036;2022-12-07T01:24:40;101643.34;;;5.12;95.94
49827;BME280;35715;51.570;6.036;2022-12-07T01:27:07;101645.00;;;5.12;96.23
49827;BME280;35715;51.570;6.036;2022-12-07T01:29:32;101638.69;;;5.17;96.11
49827;BME280;35715;51.570;6.036;2022-12-07T01:31:58;101640.94;;;5.14;95.63
49827;BME280;35715;51.570;6.036;2022-12-07T01:34:23;101645.16;;;5.13;95.42
49827;BME280;35715;51.570;6.036;2022-12-07T01:36:50;101637.59;;;5.06;95.34
49827;BME280;35715;51.570;6.036;2022-12-07T01:39:15;101642.56;;;5.05;95.13
49827;BME280;35715;51.570;6.036;2022-12-07T01:41:41;101638.94;;;5.03;94.88
49827;BME280;35715;51.570;6.036;2022-12-07T01:49:37;101641.78;;;4.97;95.59
49827;BME280;35715;51.570;6.036;2022-12-07T01:52:13;101638.59;;;5.00;95.29
49827;BME280;35715;51.570;6.036;2022-12-07T01:54:40;101645.22;;;4.97;95.24
49827;BME280;35715;51.570;6.036;2022-12-07T01:57:10;101646.88;;;4.97;95.53
49827;BME280;35715;51.570;6.036;2022-12-07T01:59:37;101639.38;;;4.98;95.80
49827;BME280;35715;51.570;6.036;2022-12-07T02:02:04;101646.41;;;4.92;95.97
49827;BME280;35715;51.570;6.036;2022-12-07T02:04:32;101645.81;;;4.95;95.87
49827;BME280;35715;51.570;6.036;2022-12-07T02:06:58;101634.69;;;4.94;95.35
49827;BME280;35715;51.570;6.036;2022-12-07T02:09:24;101633.47;;;4.91;95.04
49827;BME280;35715;51.570;6.036;2022-12-07T02:11:49;101624.41;;;4.86;95.05
49827;BME280;35715;51.570;6.036;2022-12-07T02:14:15;101628.16;;;4.80;95.23
49827;BME280;35715;51.570;6.036;2022-12-07T02:16:53;101631.28;;;4.78;95.50
49827;BME280;35715;51.570;6.036;2022-12-07T02:22:18;101618.63;;;4.71;95.40
49827;BME280;35715;51.570;6.036;2022-12-07T02:30:00;101635.88;;;4.65;95.81
49827;BME280;35715;51.570;6.036;2022-12-07T02:32:48;101631.69;;;4.65;95.81
49827;BME280;35715;51.570;6.036;2022-12-07T02:43:02;101628.03;;;4.54;95.58
49827;BME280;35715;51.570;6.036;2022-12-07T02:45:28;101626.78;;;4.51;95.60
49827;BME280;35715;51.570;6.036;2022-12-07T02:47:56;101632.66;;;4.50;95.40
49827;BME280;35715;51.570;6.036;2022-12-07T02:50:23;101626.28;;;4.46;95.89
49827;BME280;35715;51.570;6.036;2022-12-07T02:52:49;101622.38;;;4.41;96.18
49827;BME280;35715;51.570;6.036;2022-12-07T02:55:15;101625.50;;;4.38;96.33
49827;BME280;35715;51.570;6.036;2022-12-07T02:58:05;101630.59;;;4.38;96.22
49827;BME280;35715;51.570;6.036;2022-12-07T03:00:31;101627.16;;;4.38;96.33
49827;BME280;35715;51.570;6.036;2022-12-07T03:03:04;101630.28;;;4.35;96.16
49827;BME280;35715;51.570;6.036;2022-12-07T03:08:11;101630.44;;;4.37;96.44
49827;BME280;35715;51.570;6.036;2022-12-07T03:18:24;101625.59;;;4.31;95.45
49827;BME280;35715;51.570;6.036;2022-12-07T03:20:51;101619.44;;;4.29;95.44
49827;BME280;35715;51.570;6.036;2022-12-07T03:23:18;101629.66;;;4.29;95.25
49827;BME280;35715;51.570;6.036;2022-12-07T03:28:20;101630.06;;;4.25;95.61
49827;BME280;35715;51.570;6.036;2022-12-07T03:30:58;101625.72;;;4.24;95.37
49827;BME280;35715;51.570;6.036;2022-12-07T03:39:35;101635.31;;;4.42;96.08
49827;BME280;35715;51.570;6.036;2022-12-07T03:42:01;101624.81;;;4.48;95.76
49827;BME280;35715;51.570;6.036;2022-12-07T03:44:29;101626.03;;;4.52;95.31
49827;BME280;35715;51.570;6.036;2022-12-07T03:49:41;101624.53;;;4.54;95.57
49827;BME280;35715;51.570;6.036;2022-12-07T03:52:12;101624.13;;;4.58;95.47
49827;BME280;35715;51.570;6.036;2022-12-07T03:54:47;101630.28;;;4.60;95.66
49827;BME280;35715;51.570;6.036;2022-12-07T03:57:25;101627.16;;;4.62;95.29
49827;BME280;35715;51.570;6.036;2022-12-07T03:59:51;101628.81;;;4.62;94.77
49827;BME280;35715;51.570;6.036;2022-12-07T04:02:17;101623.22;;;4.57;94.48
49827;BME280;35715;51.570;6.036;2022-12-07T04:04:42;101623.06;;;4.56;94.48
49827;BME280;35715;51.570;6.036;2022-12-07T04:07:09;101620.94;;;4.52;94.69
49827;BME280;35715;51.570;6.036;2022-12-07T04:09:35;101619.72;;;4.48;94.56
49827;BME280;35715;51.570;6.036;2022-12-07T04:12:00;101613.53;;;4.46;94.88
49827;BME280;35715;51.570;6.036;2022-12-07T04:14:26;101622.28;;;4.48;95.21
49827;BME280;35715;51.570;6.036;2022-12-07T04:16:53;101619.09;;;4.51;95.33
49827;BME280;35715;51.570;6.036;2022-12-07T04:19:19;101625.16;;;4.51;95.39
49827;BME280;35715;51.570;6.036;2022-12-07T04:21:45;101621.97;;;4.54;95.22
49827;BME280;35715;51.570;6.036;2022-12-07T04:24:11;101620.50;;;4.56;95.33
49827;BME280;35715;51.570;6.036;2022-12-07T04:26:39;101615.41;;;4.56;95.44
49827;BME280;35715;51.570;6.036;2022-12-07T04:29:04;101612.22;;;4.58;95.64
49827;BME280;35715;51.570;6.036;2022-12-07T04:31:30;101614.38;;;4.62;95.64
49827;BME280;35715;51.570;6.036;2022-12-07T04:33:55;101611.09;;;4.64;95.60
49827;BME280;35715;51.570;6.036;2022-12-07T04:36:24;101611.41;;;4.67;95.92
49827;BME280;35715;51.570;6.036;2022-12-07T04:38:52;101610.06;;;4.70;95.90
49827;BME280;35715;51.570;6.036;2022-12-07T04:41:17;101603.94;;;4.77;95.67
49827;BME280;35715;51.570;6.036;2022-12-07T04:43:42;101607.69;;;4.80;95.33
49827;BME280;35715;51.570;6.036;2022-12-07T04:46:08;101607.69;;;4.80;95.13
49827;BME280;35715;51.570;6.036;2022-12-07T04:48:33;101603.47;;;4.81;95.22
49827;BME280;35715;51.570;6.036;2022-12-07T04:50:58;101600.19;;;4.82;95.18
49827;BME280;35715;51.570;6.036;2022-12-07T04:53:23;101600.94;;;4.81;95.27
49827;BME280;35715;51.570;6.036;2022-12-07T04:55:50;101596.59;;;4.80;95.40
49827;BME280;35715;51.570;6.036;2022-12-07T04:58:15;101611.16;;;4.81;95.61
49827;BME280;35715;51.570;6.036;2022-12-07T05:00:40;101598.66;;;4.75;95.35
49827;BME280;35715;51.570;6.036;2022-12-07T05:03:05;101601.97;;;4.74;95.77
49827;BME280;35715;51.570;6.036;2022-12-07T05:07:59;101602.75;;;4.82;95.65
49827;BME280;35715;51.570;6.036;2022-12-07T05:10:24;101597.94;;;4.85;95.60
49827;BME280;35715;51.570;6.036;2022-12-07T05:12:49;101599.75;;;4.86;95.49
49827;BME280;35715;51.570;6.036;2022-12-07T05:15:15;101591.78;;;4.83;95.70
49827;BME280;35715;51.570;6.036;2022-12-07T05:20:25;101598.84;;;4.86;95.25
49827;BME280;35715;51.570;6.036;2022-12-07T05:22:50;101594.81;;;4.88;94.82
49827;BME280;35715;51.570;6.036;2022-12-07T05:25:15;101593.72;;;4.86;94.61
49827;BME280;35715;51.570;6.036;2022-12-07T05:27:54;101595.06;;;4.82;94.12
49827;BME280;35715;51.570;6.036;2022-12-07T05:30:19;101596.53;;;4.71;93.70
49827;BME280;35715;51.570;6.036;2022-12-07T05:32:45;101595.13;;;4.66;93.79
49827;BME280;35715;51.570;6.036;2022-12-07T05:35:13;101592.09;;;4.61;93.84
49827;BME280;35715;51.570;6.036;2022-12-07T05:37:38;101594.19;;;4.57;94.29
49827;BME280;35715;51.570;6.036;2022-12-07T05:40:04;101592.41;;;4.56;94.72
49827;BME280;35715;51.570;6.036;2022-12-07T05:42:30;101598.81;;;4.52;94.82
49827;BME280;35715;51.570;6.036;2022-12-07T05:44:55;101596.38;;;4.45;94.50
49827;BME280;35715;51.570;6.036;2022-12-07T05:47:20;101601.78;;;4.39;94.41
49827;BME280;35715;51.570;6.036;2022-12-07T05:49:46;101595.41;;;4.36;94.32
49827;BME280;35715;51.570;6.036;2022-12-07T05:52:11;101598.25;;;4.30;94.52
49827;BME280;35715;51.570;6.036;2022-12-07T05:54:36;101598.84;;;4.28;94.57
49827;BME280;35715;51.570;6.036;2022-12-07T05:57:02;101598.34;;;4.23;94.83
49827;BME280;35715;51.570;6.036;2022-12-07T05:59:28;101597.47;;;4.22;94.75
49827;BME280;35715;51.570;6.036;2022-12-07T06:01:58;101594.56;;;4.19;94.79
49827;BME280;35715;51.570;6.036;2022-12-07T06:07:18;101594.28;;;4.25;96.04
49827;BME280;35715;51.570;6.036;2022-12-07T06:09:43;101588.94;;;4.31;96.18
49827;BME280;35715;51.570;6.036;2022-12-07T06:12:09;101599.47;;;4.34;95.86
49827;BME280;35715;51.570;6.036;2022-12-07T06:14:53;101598.56;;;4.33;95.25
49827;BME280;35715;51.570;6.036;2022-12-07T06:17:19;101594.63;;;4.28;94.81
49827;BME280;35715;51.570;6.036;2022-12-07T06:19:44;101589.94;;;4.24;94.65
49827;BME280;35715;51.570;6.036;2022-12-07T06:22:09;101593.97;;;4.22;94.67
49827;BME280;35715;51.570;6.036;2022-12-07T06:24:36;101598.59;;;4.17;94.71
49827;BME280;35715;51.570;6.036;2022-12-07T06:27:05;101598.13;;;4.13;94.47
49827;BME280;35715;51.570;6.036;2022-12-07T06:29:31;101595.97;;;4.08;94.53
49827;BME280;35715;51.570;6.036;2022-12-07T06:31:56;101592.03;;;4.03;94.82
49827;BME280;35715;51.570;6.036;2022-12-07T06:34:22;101595.78;;;3.98;95.01
49827;BME280;35715;51.570;6.036;2022-12-07T06:36:49;101595.63;;;3.97;94.98
49827;BME280;35715;51.570;6.036;2022-12-07T06:39:20;101595.84;;;3.91;95.32
49827;BME280;35715;51.570;6.036;2022-12-07T06:41:46;101601.69;;;3.90;95.45
49827;BME280;35715;51.570;6.036;2022-12-07T06:44:11;101607.69;;;3.90;95.41
49827;BME280;35715;51.570;6.036;2022-12-07T06:46:36;101603.34;;;3.89;95.57
49827;BME280;35715;51.570;6.036;2022-12-07T06:49:02;101605.91;;;3.89;95.92
49827;BME280;35715;51.570;6.036;2022-12-07T06:51:28;101604.09;;;3.88;95.58
49827;BME280;35715;51.570;6.036;2022-12-07T06:53:53;101602.25;;;3.87;95.71
49827;BME280;35715;51.570;6.036;2022-12-07T06:58:54;101598.66;;;3.85;96.42
49827;BME280;35715;51.570;6.036;2022-12-07T07:01:19;101604.97;;;3.89;97.03
49827;BME280;35715;51.570;6.036;2022-12-07T07:03:45;101604.41;;;3.91;96.34
49827;BME280;35715;51.570;6.036;2022-12-07T07:06:14;101588.03;;;3.89;95.95
49827;BME280;35715;51.570;6.036;2022-12-07T07:08:39;101592.06;;;3.87;95.54
49827;BME280;35715;51.570;6.036;2022-12-07T07:11:05;101595.06;;;3.83;95.42
49827;BME280;35715;51.570;6.036;2022-12-07T07:13:30;101599.81;;;3.80;95.49
49827;BME280;35715;51.570;6.036;2022-12-07T07:15:59;101601.88;;;3.76;95.30
49827;BME280;35715;51.570;6.036;2022-12-07T07:18:24;101600.63;;;3.72;95.47
49827;BME280;35715;51.570;6.036;2022-12-07T07:20:50;101604.13;;;3.72;95.59
49827;BME280;35715;51.570;6.036;2022-12-07T07:23:15;101607.81;;;3.67;95.57
49827;BME280;35715;51.570;6.036;2022-12-07T07:25:43;101607.63;;;3.66;95.80
49827;BME280;35715;51.570;6.036;2022-12-07T07:28:09;101611.69;;;3.64;95.98
49827;BME280;35715;51.570;6.036;2022-12-07T07:30:34;101614.06;;;3.62;96.45
49827;BME280;35715;51.570;6.036;2022-12-07T07:33:00;101608.63;;;3.59;96.45
49827;BME280;35715;51.570;6.036;2022-12-07T07:35:26;101606.81;;;3.58;96.48
49827;BME280;35715;51.570;6.036;2022-12-07T07:37:51;101605.91;;;3.58;96.40
49827;BME280;35715;51.570;6.036;2022-12-07T07:40:17;101616.13;;;3.58;96.76
49827;BME280;35715;51.570;6.036;2022-12-07T07:42:42;101612.66;;;3.57;96.99
49827;BME280;35715;51.570;6.036;2022-12-07T07:45:10;101615.38;;;3.59;97.35
49827;BME280;35715;51.570;6.036;2022-12-07T07:47:35;101614.63;;;3.60;97.44
49827;BME280;35715;51.570;6.036;2022-12-07T07:50:00;101612.41;;;3.63;97.39
49827;BME280;35715;51.570;6.036;2022-12-07T07:52:25;101613.81;;;3.68;97.35
49827;BME280;35715;51.570;6.036;2022-12-07T07:54:51;101617.44;;;3.70;97.67
49827;BME280;35715;51.570;6.036;2022-12-07T07:57:16;101621.38;;;3.75;97.91
49827;BME280;35715;51.570;6.036;2022-12-07T07:59:42;101621.72;;;3.78;97.67
49827;BME280;35715;51.570;6.036;2022-12-07T08:02:09;101626.25;;;3.81;97.35
49827;BME280;35715;51.570;6.036;2022-12-07T08:04:38;101621.06;;;3.88;97.76
49827;BME280;35715;51.570;6.036;2022-12-07T08:07:07;101623.88;;;3.98;97.68
49827;BME280;35715;51.570;6.036;2022-12-07T08:09:32;101623.00;;;4.06;97.32
49827;BME280;35715;51.570;6.036;2022-12-07T08:11:58;101620.94;;;4.11;97.01
49827;BME280;35715;51.570;6.036;2022-12-07T08:14:23;101620.69;;;4.17;96.63
49827;BME280;35715;51.570;6.036;2022-12-07T08:16:59;101624.13;;;4.17;96.28
49827;BME280;35715;51.570;6.036;2022-12-07T08:19:24;101622.16;;;4.15;96.40
49827;BME280;35715;51.570;6.036;2022-12-07T08:21:50;101625.47;;;4.14;96.36
49827;BME280;35715;51.570;6.036;2022-12-07T08:24:15;101615.09;;;4.12;96.49
49827;BME280;35715;51.570;6.036;2022-12-07T08:26:42;101619.44;;;4.13;96.82
49827;BME280;35715;51.570;6.036;2022-12-07T08:29:07;101624.88;;;4.16;96.49
49827;BME280;35715;51.570;6.036;2022-12-07T08:31:33;101624.31;;;4.19;96.61
49827;BME280;35715;51.570;6.036;2022-12-07T08:33:58;101626.03;;;4.27;96.60
49827;BME280;35715;51.570;6.036;2022-12-07T08:38:51;101624.13;;;4.33;95.89
49827;BME280;35715;51.570;6.036;2022-12-07T08:41:17;101628.22;;;4.40;95.55
49827;BME280;35715;51.570;6.036;2022-12-07T08:43:42;101641.31;;;4.43;95.19
49827;BME280;35715;51.570;6.036;2022-12-07T08:48:43;101639.81;;;4.45;94.79
49827;BME280;35715;51.570;6.036;2022-12-07T08:51:10;101633.22;;;4.47;95.04
49827;BME280;35715;51.570;6.036;2022-12-07T08:53:36;101631.00;;;4.50;94.95
49827;BME280;35715;51.570;6.036;2022-12-07T08:56:02;101632.66;;;4.50;94.58
49827;BME280;35715;51.570;6.036;2022-12-07T09:01:39;101628.84;;;4.46;94.43
49827;BME280;35715;51.570;6.036;2022-12-07T09:04:04;101626.88;;;4.43;94.88
49827;BME280;35715;51.570;6.036;2022-12-07T09:06:30;101631.09;;;4.43;94.93
49827;BME280;35715;51.570;6.036;2022-12-07T09:08:57;101628.53;;;4.43;94.98
49827;BME280;35715;51.570;6.036;2022-12-07T09:11:23;101623.09;;;4.40;95.33
49827;BME280;35715;51.570;6.036;2022-12-07T09:13:48;101623.59;;;4.44;95.87
49827;BME280;35715;51.570;6.036;2022-12-07T09:16:14;101628.19;;;4.56;96.02
49827;BME280;35715;51.570;6.036;2022-12-07T09:18:39;101620.69;;;4.66;95.98
49827;BME280;35715;51.570;6.036;2022-12-07T09:21:05;101629.28;;;4.67;96.05
49827;BME280;35715;51.570;6.036;2022-12-07T09:23:30;101630.19;;;4.67;96.18
49827;BME280;35715;51.570;6.036;2022-12-07T09:26:01;101629.75;;;4.71;96.05
49827;BME280;35715;51.570;6.036;2022-12-07T09:28:27;101628.16;;;4.80;96.30
49827;BME280;35715;51.570;6.036;2022-12-07T09:30:52;101629.00;;;4.97;95.91
49827;BME280;35715;51.570;6.036;2022-12-07T09:33:17;101636.72;;;5.06;95.22
49827;BME280;35715;51.570;6.036;2022-12-07T09:38:31;101628.88;;;5.13;94.18
49827;BME280;35715;51.570;6.036;2022-12-07T09:40:57;101637.47;;;5.13;93.97
49827;BME280;35715;51.570;6.036;2022-12-07T09:43:23;101639.59;;;5.18;93.84
49827;BME280;35715;51.570;6.036;2022-12-07T09:45:56;101636.56;;;5.13;94.12
49827;BME280;35715;51.570;6.036;2022-12-07T09:48:32;101640.03;;;5.13;94.35
49827;BME280;35715;51.570;6.036;2022-12-07T09:50:58;101634.34;;;5.25;94.59
49827;BME280;35715;51.570;6.036;2022-12-07T09:53:25;101632.88;;;5.36;94.41
49827;BME280;35715;51.570;6.036;2022-12-07T09:58:41;101630.22;;;5.51;94.01
49827;BME280;35715;51.570;6.036;2022-12-07T10:03:37;101622.34;;;7.45;90.91
49827;BME280;35715;51.570;6.036;2022-12-07T10:06:10;101621.91;;;7.88;83.78
49827;BME280;35715;51.570;6.036;2022-12-07T10:08:37;101614.50;;;7.44;83.67
49827;BME280;35715;51.570;6.036;2022-12-07T10:11:02;101616.69;;;8.15;84.36
49827;BME280;35715;51.570;6.036;2022-12-07T10:16:32;101606.63;;;8.57;79.17
49827;BME280;35715;51.570;6.036;2022-12-07T10:19:16;101604.47;;;8.61;79.55
49827;BME280;35715;51.570;6.036;2022-12-07T10:21:42;101610.28;;;8.69;80.01
49827;BME280;35715;51.570;6.036;2022-12-07T10:24:23;101599.44;;;8.52;78.33
49827;BME280;35715;51.570;6.036;2022-12-07T10:26:53;101582.59;;;9.06;78.01
49827;BME280;35715;51.570;6.036;2022-12-07T10:31:50;101580.31;;;10.56;71.69
49827;BME280;35715;51.570;6.036;2022-12-07T10:34:25;101577.59;;;12.01;65.26
49827;BME280;35715;51.570;6.036;2022-12-07T10:36:51;101579.69;;;13.16;63.11
49827;BME280;35715;51.570;6.036;2022-12-07T10:39:17;101566.75;;;13.93;60.41
49827;BME280;35715;51.570;6.036;2022-12-07T10:44:25;101558.16;;;15.63;56.44
49827;BME280;35715;51.570;6.036;2022-12-07T10:46:57;101559.81;;;15.17;52.19
49827;BME280;35715;51.570;6.036;2022-12-07T10:49:30;101564.22;;;13.68;59.98
49827;BME280;35715;51.570;6.036;2022-12-07T10:54:46;101570.22;;;11.83;61.09
49827;BME280;35715;51.570;6.036;2022-12-07T11:10:40;101552.38;;;9.24;70.89
49827;BME280;35715;51.570;6.036;2022-12-07T11:13:12;101552.06;;;9.00;72.11
49827;BME280;35715;51.570;6.036;2022-12-07T11:18:29;101545.00;;;8.87;73.82
49827;BME280;35715;51.570;6.036;2022-12-07T11:21:19;101552.28;;;8.73;73.76
49827;BME280;35715;51.570;6.036;2022-12-07T11:23:59;101547.59;;;8.58;74.62
49827;BME280;35715;51.570;6.036;2022-12-07T11:26:41;101542.47;;;8.48;75.15
49827;BME280;35715;51.570;6.036;2022-12-07T11:29:18;101542.66;;;8.41;75.74
49827;BME280;35715;51.570;6.036;2022-12-07T11:31:53;101534.88;;;8.49;76.62
49827;BME280;35715;51.570;6.036;2022-12-07T11:37:01;101537.59;;;8.61;76.33
49827;BME280;35715;51.570;6.036;2022-12-07T11:39:33;101537.72;;;8.52;75.85
49827;BME280;35715;51.570;6.036;2022-12-07T11:42:09;101532.66;;;8.44;76.17
49827;BME280;35715;51.570;6.036;2022-12-07T11:44:51;101529.38;;;8.36;76.84
49827;BME280;35715;51.570;6.036;2022-12-07T11:54:49;101517.22;;;8.44;77.38
49827;BME280;35715;51.570;6.036;2022-12-07T11:57:21;101510.19;;;8.32;76.88
49827;BME280;35715;51.570;6.036;2022-12-07T11:59:53;101516.97;;;8.22;77.68
49827;BME280;35715;51.570;6.036;2022-12-07T12:02:31;101521.72;;;8.17;77.51
49827;BME280;35715;51.570;6.036;2022-12-07T12:07:44;101504.59;;;8.07;77.88
49827;BME280;35715;51.570;6.036;2022-12-07T12:10:19;101514.00;;;8.17;78.70
49827;BME280;35715;51.570;6.036;2022-12-07T12:23:11;101498.66;;;9.29;75.78
49827;BME280;35715;51.570;6.036;2022-12-07T12:25:45;101490.00;;;10.02;72.29
49827;BME280;35715;51.570;6.036;2022-12-07T12:28:19;101483.09;;;10.89;69.20
49827;BME280;35715;51.570;6.036;2022-12-07T12:30:47;101484.00;;;10.45;68.46
49827;BME280;35715;51.570;6.036;2022-12-07T12:33:29;101482.59;;;10.17;70.36
49827;BME280;35715;51.570;6.036;2022-12-07T12:38:48;101484.03;;;9.70;72.15
49827;BME280;35715;51.570;6.036;2022-12-07T12:43:58;101473.44;;;9.24;71.80
49827;BME280;35715;51.570;6.036;2022-12-07T12:51:40;101469.59;;;8.78;72.93
49827;BME280;35715;51.570;6.036;2022-12-07T12:54:10;101464.19;;;8.75;73.68
49827;BME280;35715;51.570;6.036;2022-12-07T12:59:28;101457.56;;;8.58;74.18
49827;BME280;35715;51.570;6.036;2022-12-07T13:01:55;101456.03;;;8.50;75.13
49827;BME280;35715;51.570;6.036;2022-12-07T13:04:23;101457.47;;;8.46;75.56
49827;BME280;35715;51.570;6.036;2022-12-07T13:06:53;101449.47;;;8.53;76.15
49827;BME280;35715;51.570;6.036;2022-12-07T13:09:23;101454.63;;;8.53;75.78
49827;BME280;35715;51.570;6.036;2022-12-07T13:12:14;101445.13;;;8.52;74.96
49827;BME280;35715;51.570;6.036;2022-12-07T13:14:57;101443.44;;;8.53;74.87
49827;BME280;35715;51.570;6.036;2022-12-07T13:18:21;101439.06;;;8.62;75.00
49827;BME280;35715;51.570;6.036;2022-12-07T13:20:08;101438.97;;;8.71;75.21
49827;BME280;35715;51.570;6.036;2022-12-07T13:30:53;101434.94;;;8.44;74.95
49827;BME280;35715;51.570;6.036;2022-12-07T13:33:19;101431.41;;;8.33;74.97
49827;BME280;35715;51.570;6.036;2022-12-07T13:38:33;101430.50;;;8.32;75.34
49827;BME280;35715;51.570;6.036;2022-12-07T13:40:59;101425.22;;;8.31;75.27
49827;BME280;35715;51.570;6.036;2022-12-07T13:43:24;101422.00;;;8.23;75.61
49827;BME280;35715;51.570;6.036;2022-12-07T13:45:58;101423.91;;;8.15;75.67
49827;BME280;35715;51.570;6.036;2022-12-07T13:48:32;101424.13;;;7.98;76.29
49827;BME280;35715;51.570;6.036;2022-12-07T13:53:50;101417.63;;;7.82;76.83
49827;BME280;35715;51.570;6.036;2022-12-07T13:56:15;101411.19;;;7.77;77.02
49827;BME280;35715;51.570;6.036;2022-12-07T13:58:41;101412.34;;;7.71;77.12
49827;BME280;35715;51.570;6.036;2022-12-07T14:03:50;101397.72;;;7.51;77.34
49827;BME280;35715;51.570;6.036;2022-12-07T14:09:15;101404.72;;;7.43;76.92
49827;BME280;35715;51.570;6.036;2022-12-07T14:11:41;101400.25;;;7.40;76.76
49827;BME280;35715;51.570;6.036;2022-12-07T14:14:11;101395.72;;;7.38;76.28
49827;BME280;35715;51.570;6.036;2022-12-07T14:16:38;101400.47;;;7.33;76.58
49827;BME280;35715;51.570;6.036;2022-12-07T14:19:40;101397.22;;;7.25;76.20
49827;BME280;35715;51.570;6.036;2022-12-07T14:22:06;101399.44;;;7.12;75.81
49827;BME280;35715;51.570;6.036;2022-12-07T14:24:33;101390.38;;;7.07;76.03
49827;BME280;35715;51.570;6.036;2022-12-07T14:27:21;101390.13;;;7.04;76.13
49827;BME280;35715;51.570;6.036;2022-12-07T14:29:47;101387.78;;;6.97;76.22
49827;BME280;35715;51.570;6.036;2022-12-07T14:34:59;101380.44;;;6.91;76.54
49827;BME280;35715;51.570;6.036;2022-12-07T14:37:25;101383.88;;;6.91;76.61
49827;BME280;35715;51.570;6.036;2022-12-07T14:39:50;101372.13;;;6.93;77.11
49827;BME280;35715;51.570;6.036;2022-12-07T14:42:15;101368.91;;;6.96;76.98
49827;BME280;35715;51.570;6.036;2022-12-07T14:44:41;101371.59;;;6.98;76.85
49827;BME280;35715;51.570;6.036;2022-12-07T14:47:08;101376.13;;;7.00;77.06
49827;BME280;35715;51.570;6.036;2022-12-07T14:49:34;101370.25;;;7.01;77.38
49827;BME280;35715;51.570;6.036;2022-12-07T14:51:59;101364.19;;;7.01;77.57
49827;BME280;35715;51.570;6.036;2022-12-07T14:54:24;101364.31;;;7.02;77.85
49827;BME280;35715;51.570;6.036;2022-12-07T14:56:58;101375.50;;;7.03;78.20
49827;BME280;35715;51.570;6.036;2022-12-07T14:59:23;101372.44;;;7.07;78.59
49827;BME280;35715;51.570;6.036;2022-12-07T15:01:48;101368.97;;;7.06;78.45
49827;BME280;35715;51.570;6.036;2022-12-07T15:04:14;101368.97;;;7.06;78.73
49827;BME280;35715;51.570;6.036;2022-12-07T15:09:24;101364.31;;;7.02;79.33
49827;BME280;35715;51.570;6.036;2022-12-07T15:11:50;101366.28;;;7.05;79.35
49827;BME280;35715;51.570;6.036;2022-12-07T15:14:15;101365.38;;;7.04;79.62
49827;BME280;35715;51.570;6.036;2022-12-07T15:19:17;101368.09;;;7.06;80.11
49827;BME280;35715;51.570;6.036;2022-12-07T15:21:42;101373.34;;;7.07;80.16
49827;BME280;35715;51.570;6.036;2022-12-07T15:24:08;101365.53;;;7.06;80.52
49827;BME280;35715;51.570;6.036;2022-12-07T15:26:48;101377.16;;;7.02;81.12
49827;BME280;35715;51.570;6.036;2022-12-07T15:29:13;101390.06;;;6.93;82.08
49827;BME280;35715;51.570;6.036;2022-12-07T15:31:40;101386.50;;;6.83;82.28
49827;BME280;35715;51.570;6.036;2022-12-07T15:34:05;101370.91;;;6.71;82.31
49827;BME280;35715;51.570;6.036;2022-12-07T15:36:43;101369.03;;;6.60;79.36
49827;BME280;35715;51.570;6.036;2022-12-07T15:39:09;101362.72;;;6.56;80.11
49827;BME280;35715;51.570;6.036;2022-12-07T15:41:34;101363.03;;;6.50;80.25
49827;BME280;35715;51.570;6.036;2022-12-07T15:44:00;101366.88;;;6.45;80.69
49827;BME280;35715;51.570;6.036;2022-12-07T15:46:46;101360.53;;;6.42;80.75
49827;BME280;35715;51.570;6.036;2022-12-07T15:49:15;101355.91;;;6.37;81.37